YMA7582 KTUL-KIAH
Flight info
| Callsign | YMA7582 |
|---|---|
| Flight time | N/A |
| Altitude | 36000 |
| Route | OKM MIDEE CVE GUSHR3 |
| Aircraft | B738/M-SDE2E3FGHIRWXY/LB1 |
Departure
| Time | 2026-04-23 09:43 |
|---|---|
| Airport | Tulsa International Airport (KTUL) |
Arrival
| Time | N/A |
|---|---|
| Airport | George Bush Intercontinental Airport (KIAH) |
| Time | Latitude | Longitude | Altitude | Speed | Heading |
|---|---|---|---|---|---|
| 2026-04-23 09:07 | 36.19154 | -95.88722 | 656 ft | 0 kts | 164° |
| 2026-04-23 09:29 | 36.19157 | -95.88723 | 656 ft | 2 kts | 165° |
| 2026-04-23 09:29 | 36.19171 | -95.88728 | 656 ft | 2 kts | 164° |
| 2026-04-23 09:29 | 36.19181 | -95.88731 | 656 ft | 2 kts | 156° |
| 2026-04-23 09:30 | 36.19192 | -95.88743 | 656 ft | 2 kts | 118° |
| 2026-04-23 09:30 | 36.19196 | -95.88761 | 656 ft | 2 kts | 86° |
| 2026-04-23 09:30 | 36.19191 | -95.88779 | 656 ft | 2 kts | 54° |
| 2026-04-23 09:30 | 36.19186 | -95.88786 | 656 ft | 1 kts | 36° |
| 2026-04-23 09:31 | 36.19182 | -95.88789 | 656 ft | 0 kts | 39° |
| 2026-04-23 09:33 | 36.19196 | -95.88776 | 656 ft | 7 kts | 39° |
| 2026-04-23 09:33 | 36.19243 | -95.88729 | 656 ft | 9 kts | 37° |
| 2026-04-23 09:33 | 36.19310 | -95.88667 | 653 ft | 14 kts | 37° |
| 2026-04-23 09:33 | 36.19396 | -95.88594 | 653 ft | 14 kts | 19° |
| 2026-04-23 09:34 | 36.19496 | -95.88589 | 653 ft | 13 kts | 360° |
| 2026-04-23 09:34 | 36.19595 | -95.88589 | 651 ft | 14 kts | 360° |
| 2026-04-23 09:34 | 36.19695 | -95.88590 | 651 ft | 14 kts | 1° |
| 2026-04-23 09:34 | 36.19796 | -95.88565 | 650 ft | 15 kts | 18° |
| 2026-04-23 09:35 | 36.19902 | -95.88521 | 648 ft | 16 kts | 19° |
| 2026-04-23 09:35 | 36.20015 | -95.88473 | 647 ft | 17 kts | 19° |
| 2026-04-23 09:35 | 36.20138 | -95.88423 | 644 ft | 19 kts | 19° |
| 2026-04-23 09:35 | 36.20273 | -95.88380 | 641 ft | 20 kts | 4° |
| 2026-04-23 09:36 | 36.20420 | -95.88367 | 636 ft | 22 kts | 3° |
| 2026-04-23 09:36 | 36.20580 | -95.88357 | 632 ft | 23 kts | 3° |
| 2026-04-23 09:36 | 36.20746 | -95.88345 | 629 ft | 24 kts | 3° |
| 2026-04-23 09:36 | 36.20917 | -95.88332 | 625 ft | 25 kts | 2° |
| 2026-04-23 09:37 | 36.21095 | -95.88321 | 623 ft | 25 kts | 2° |
| 2026-04-23 09:37 | 36.21255 | -95.88311 | 619 ft | 14 kts | 2° |
| 2026-04-23 09:37 | 36.21330 | -95.88306 | 619 ft | 9 kts | 4° |
| 2026-04-23 09:37 | 36.21368 | -95.88296 | 618 ft | 0 kts | 27° |
| 2026-04-23 09:38 | 36.21369 | -95.88296 | 618 ft | 0 kts | 27° |
| 2026-04-23 09:38 | 36.21379 | -95.88281 | 618 ft | 3 kts | 61° |
| 2026-04-23 09:39 | 36.21383 | -95.88264 | 618 ft | 0 kts | 83° |
| 2026-04-23 09:39 | 36.21384 | -95.88243 | 618 ft | 6 kts | 89° |
| 2026-04-23 09:39 | 36.21381 | -95.88169 | 619 ft | 8 kts | 95° |
| 2026-04-23 09:39 | 36.21355 | -95.88135 | 620 ft | 4 kts | 182° |
| 2026-04-23 09:40 | 36.21354 | -95.88135 | 620 ft | 0 kts | 183° |
| 2026-04-23 09:42 | 36.21352 | -95.88135 | 621 ft | 1 kts | 183° |
| 2026-04-23 09:42 | 36.21200 | -95.88144 | 624 ft | 54 kts | 182° |
| 2026-04-23 09:42 | 36.20607 | -95.88184 | 635 ft | 114 kts | 183° |
| 2026-04-23 09:42 | 36.19643 | -95.88245 | 660 ft | 161 kts | 182° |
| 2026-04-23 09:43 | 36.18511 | -95.88332 | 1243 ft | 163 kts | 181° |
| 2026-04-23 09:43 | 36.17439 | -95.88364 | 2074 ft | 156 kts | 181° |
| 2026-04-23 09:43 | 36.16328 | -95.88438 | 2536 ft | 164 kts | 183° |
| 2026-04-23 09:43 | 36.15151 | -95.88532 | 2951 ft | 175 kts | 182° |
| 2026-04-23 09:44 | 36.13906 | -95.88623 | 3358 ft | 185 kts | 183° |
| 2026-04-23 09:44 | 36.12561 | -95.88679 | 3689 ft | 203 kts | 180° |
| 2026-04-23 09:44 | 36.11103 | -95.88530 | 4048 ft | 221 kts | 173° |
| 2026-04-23 09:44 | 36.09532 | -95.88243 | 4521 ft | 234 kts | 174° |
| 2026-04-23 09:45 | 36.07871 | -95.88062 | 4984 ft | 246 kts | 178° |
| 2026-04-23 09:45 | 36.06124 | -95.87977 | 5580 ft | 253 kts | 180° |
| 2026-04-23 09:45 | 36.04356 | -95.87920 | 6251 ft | 257 kts | 180° |
| 2026-04-23 09:45 | 36.02568 | -95.87864 | 6899 ft | 263 kts | 180° |
| 2026-04-23 09:46 | 36.00728 | -95.87800 | 7536 ft | 268 kts | 180° |
| 2026-04-23 09:46 | 35.98849 | -95.87729 | 8182 ft | 274 kts | 180° |
| 2026-04-23 09:46 | 35.96918 | -95.87655 | 8804 ft | 282 kts | 180° |
| 2026-04-23 09:46 | 35.94958 | -95.87579 | 9479 ft | 286 kts | 180° |
| 2026-04-23 09:47 | 35.92944 | -95.87502 | 10135 ft | 293 kts | 180° |
| 2026-04-23 09:47 | 35.90866 | -95.87422 | 10643 ft | 305 kts | 180° |
| 2026-04-23 09:47 | 35.89642 | -95.87376 | 10892 ft | 313 kts | 180° |
| 2026-04-23 09:47 | 35.88584 | -95.87337 | 11110 ft | 321 kts | 179° |
| 2026-04-23 09:48 | 35.86308 | -95.87252 | 11469 ft | 337 kts | 180° |
| 2026-04-23 09:48 | 35.83916 | -95.87161 | 11823 ft | 353 kts | 180° |
| 2026-04-23 09:48 | 35.81420 | -95.87064 | 12325 ft | 364 kts | 179° |
| 2026-04-23 09:48 | 35.78880 | -95.86964 | 12923 ft | 371 kts | 179° |
| 2026-04-23 09:49 | 35.76261 | -95.86863 | 13617 ft | 376 kts | 179° |
| 2026-04-23 09:49 | 35.73657 | -95.86767 | 14360 ft | 379 kts | 180° |
| 2026-04-23 09:49 | 35.71022 | -95.86816 | 15055 ft | 383 kts | 185° |
| 2026-04-23 09:49 | 35.68364 | -95.87312 | 15773 ft | 385 kts | 195° |
| 2026-04-23 09:50 | 35.66447 | -95.88024 | 16319 ft | 387 kts | 200° |
| 2026-04-23 09:50 | 35.64172 | -95.89095 | 16945 ft | 389 kts | 204° |
| 2026-04-23 09:51 | 35.61658 | -95.90433 | 17643 ft | 393 kts | 205° |
| 2026-04-23 09:51 | 35.59157 | -95.91826 | 18318 ft | 396 kts | 206° |
| 2026-04-23 09:51 | 35.56638 | -95.93235 | 18964 ft | 400 kts | 206° |
| 2026-04-23 09:51 | 35.54113 | -95.94628 | 19627 ft | 404 kts | 205° |
| 2026-04-23 09:52 | 35.51547 | -95.96021 | 20237 ft | 408 kts | 205° |
| 2026-04-23 09:52 | 35.48936 | -95.97421 | 20850 ft | 412 kts | 205° |
| 2026-04-23 09:52 | 35.46294 | -95.98830 | 21450 ft | 416 kts | 205° |
| 2026-04-23 09:52 | 35.43613 | -96.00253 | 22039 ft | 419 kts | 205° |
| 2026-04-23 09:53 | 35.40950 | -96.01664 | 22578 ft | 424 kts | 205° |
| 2026-04-23 09:53 | 35.38231 | -96.03103 | 23128 ft | 427 kts | 205° |
| 2026-04-23 09:53 | 35.35478 | -96.04559 | 23678 ft | 430 kts | 205° |
| 2026-04-23 09:53 | 35.32726 | -96.06013 | 24213 ft | 434 kts | 204° |
| 2026-04-23 09:54 | 35.29968 | -96.07469 | 24717 ft | 437 kts | 204° |
| 2026-04-23 09:54 | 35.27155 | -96.08953 | 25271 ft | 439 kts | 204° |
| 2026-04-23 09:54 | 35.24363 | -96.10425 | 25801 ft | 441 kts | 204° |
| 2026-04-23 09:54 | 35.21519 | -96.11865 | 26277 ft | 444 kts | 201° |
| 2026-04-23 09:55 | 35.18587 | -96.13106 | 26770 ft | 447 kts | 198° |
| 2026-04-23 09:55 | 35.15613 | -96.14195 | 27243 ft | 449 kts | 196° |
| 2026-04-23 09:55 | 35.12572 | -96.15228 | 27699 ft | 452 kts | 195° |
| 2026-04-23 09:55 | 35.09550 | -96.16225 | 28143 ft | 455 kts | 195° |
| 2026-04-23 09:56 | 35.06452 | -96.17243 | 28575 ft | 457 kts | 195° |
| 2026-04-23 09:56 | 35.03405 | -96.18252 | 28981 ft | 460 kts | 195° |
| 2026-04-23 09:56 | 35.00293 | -96.19292 | 29397 ft | 463 kts | 195° |
| 2026-04-23 09:56 | 34.97208 | -96.20333 | 29934 ft | 462 kts | 195° |
| 2026-04-23 09:57 | 34.94138 | -96.21378 | 30697 ft | 456 kts | 195° |
| 2026-04-23 09:57 | 34.91117 | -96.22411 | 31375 ft | 451 kts | 195° |
| 2026-04-23 09:57 | 34.88062 | -96.23457 | 31902 ft | 450 kts | 195° |
| 2026-04-23 09:57 | 34.85064 | -96.24487 | 32367 ft | 449 kts | 195° |
| 2026-04-23 09:58 | 34.82073 | -96.25514 | 32849 ft | 448 kts | 195° |
| 2026-04-23 09:58 | 34.79068 | -96.26547 | 33362 ft | 446 kts | 195° |
| 2026-04-23 09:58 | 34.76082 | -96.27572 | 33819 ft | 445 kts | 195° |
| 2026-04-23 09:58 | 34.73098 | -96.28597 | 34277 ft | 444 kts | 195° |
| 2026-04-23 09:59 | 34.70149 | -96.29609 | 34746 ft | 443 kts | 195° |
| 2026-04-23 09:59 | 34.67165 | -96.30634 | 35185 ft | 442 kts | 195° |
| 2026-04-23 09:59 | 34.64204 | -96.31648 | 35584 ft | 441 kts | 195° |
| 2026-04-23 09:59 | 34.61237 | -96.32664 | 35956 ft | 441 kts | 195° |
| 2026-04-23 10:00 | 34.58266 | -96.33680 | 36010 ft | 446 kts | 195° |
| 2026-04-23 10:00 | 34.52273 | -96.35729 | 36011 ft | 445 kts | 195° |
| 2026-04-23 10:01 | 34.46212 | -96.37797 | 36008 ft | 445 kts | 196° |
| 2026-04-23 10:01 | 34.40215 | -96.39840 | 36002 ft | 445 kts | 195° |
| 2026-04-23 10:02 | 34.34193 | -96.41888 | 36001 ft | 446 kts | 196° |
| 2026-04-23 10:02 | 34.28251 | -96.43907 | 36006 ft | 446 kts | 196° |
| 2026-04-23 10:03 | 34.22250 | -96.45943 | 36002 ft | 446 kts | 196° |
| 2026-04-23 10:03 | 34.16252 | -96.47974 | 36005 ft | 446 kts | 196° |
| 2026-04-23 10:04 | 34.10236 | -96.50008 | 36010 ft | 447 kts | 196° |
| 2026-04-23 10:04 | 34.04250 | -96.52031 | 36014 ft | 446 kts | 196° |
| 2026-04-23 10:05 | 33.98251 | -96.54054 | 36019 ft | 447 kts | 196° |
| 2026-04-23 10:05 | 33.92251 | -96.56073 | 36016 ft | 447 kts | 196° |
| 2026-04-23 10:06 | 33.86235 | -96.58096 | 36014 ft | 446 kts | 196° |
| 2026-04-23 10:06 | 33.80238 | -96.60111 | 36011 ft | 446 kts | 196° |
| 2026-04-23 10:07 | 33.74274 | -96.62110 | 36008 ft | 447 kts | 197° |
| 2026-04-23 10:07 | 33.68227 | -96.64135 | 36014 ft | 448 kts | 197° |
| 2026-04-23 10:08 | 33.62236 | -96.66138 | 36007 ft | 448 kts | 196° |
| 2026-04-23 10:08 | 33.56197 | -96.68153 | 36005 ft | 449 kts | 196° |
| 2026-04-23 10:09 | 33.47133 | -96.71171 | 36000 ft | 453 kts | 197° |
| 2026-04-23 10:09 | 33.41063 | -96.73189 | 35998 ft | 452 kts | 197° |
| 2026-04-23 10:10 | 33.36368 | -96.74751 | 35998 ft | 455 kts | 197° |
| 2026-04-23 10:10 | 33.30267 | -96.76776 | 35999 ft | 457 kts | 197° |
| 2026-04-23 10:11 | 33.24131 | -96.78809 | 36007 ft | 459 kts | 197° |
| 2026-04-23 10:11 | 33.17934 | -96.80859 | 36005 ft | 460 kts | 197° |
| 2026-04-23 10:12 | 33.11767 | -96.82896 | 36004 ft | 460 kts | 197° |
| 2026-04-23 10:12 | 33.05594 | -96.84933 | 36005 ft | 460 kts | 197° |
| 2026-04-23 10:13 | 32.99408 | -96.86970 | 36002 ft | 463 kts | 197° |
| 2026-04-23 10:13 | 32.93208 | -96.88966 | 36002 ft | 464 kts | 195° |
| 2026-04-23 10:14 | 32.86724 | -96.89671 | 36001 ft | 469 kts | 175° |
| 2026-04-23 10:14 | 32.80273 | -96.88235 | 36000 ft | 473 kts | 168° |
| 2026-04-23 10:15 | 32.73911 | -96.86320 | 35997 ft | 472 kts | 166° |
| 2026-04-23 10:15 | 32.67535 | -96.84351 | 35997 ft | 474 kts | 167° |
| 2026-04-23 10:16 | 32.61115 | -96.82424 | 35999 ft | 476 kts | 167° |
| 2026-04-23 10:16 | 32.54676 | -96.80545 | 36003 ft | 476 kts | 167° |
| 2026-04-23 10:17 | 32.48227 | -96.78689 | 36002 ft | 476 kts | 168° |
| 2026-04-23 10:17 | 32.41799 | -96.76852 | 35999 ft | 477 kts | 168° |
| 2026-04-23 10:18 | 32.35321 | -96.75005 | 35995 ft | 477 kts | 168° |
| 2026-04-23 10:18 | 32.28855 | -96.73166 | 35996 ft | 478 kts | 168° |
| 2026-04-23 10:19 | 32.22371 | -96.71321 | 35989 ft | 480 kts | 168° |
| 2026-04-23 10:19 | 32.15888 | -96.69479 | 35986 ft | 480 kts | 168° |
| 2026-04-23 10:20 | 32.09403 | -96.67641 | 35988 ft | 479 kts | 168° |
| 2026-04-23 10:20 | 32.02902 | -96.65801 | 35990 ft | 480 kts | 168° |
| 2026-04-23 10:21 | 31.96404 | -96.63963 | 35990 ft | 482 kts | 169° |
| 2026-04-23 10:21 | 31.89897 | -96.62126 | 35993 ft | 480 kts | 168° |
| 2026-04-23 10:22 | 31.83331 | -96.60274 | 35987 ft | 482 kts | 168° |
| 2026-04-23 10:22 | 31.76851 | -96.58450 | 35990 ft | 482 kts | 169° |
| 2026-04-23 10:23 | 31.70339 | -96.56619 | 35998 ft | 480 kts | 168° |
| 2026-04-23 10:23 | 31.63824 | -96.54789 | 35755 ft | 477 kts | 168° |
| 2026-04-23 10:24 | 31.60624 | -96.53891 | 35270 ft | 473 kts | 169° |
| 2026-04-23 10:24 | 31.57422 | -96.52975 | 34616 ft | 473 kts | 167° |
| 2026-04-23 10:24 | 31.54257 | -96.51916 | 33907 ft | 474 kts | 165° |
| 2026-04-23 10:24 | 31.51161 | -96.50608 | 33178 ft | 478 kts | 160° |
| 2026-04-23 10:25 | 31.48122 | -96.49066 | 32411 ft | 481 kts | 157° |
| 2026-04-23 10:25 | 31.45095 | -96.47362 | 31587 ft | 485 kts | 155° |
| 2026-04-23 10:25 | 31.42103 | -96.45577 | 30842 ft | 485 kts | 153° |
| 2026-04-23 10:25 | 31.39097 | -96.43731 | 30213 ft | 483 kts | 153° |
| 2026-04-23 10:26 | 31.36147 | -96.41898 | 29575 ft | 481 kts | 153° |
| 2026-04-23 10:26 | 31.33215 | -96.40073 | 28917 ft | 479 kts | 153° |
| 2026-04-23 10:26 | 31.30270 | -96.38243 | 28248 ft | 477 kts | 153° |
| 2026-04-23 10:26 | 31.27369 | -96.36449 | 27607 ft | 471 kts | 153° |
| 2026-04-23 10:27 | 31.24500 | -96.34682 | 27111 ft | 461 kts | 153° |
| 2026-04-23 10:27 | 31.21693 | -96.32960 | 26474 ft | 454 kts | 153° |
| 2026-04-23 10:27 | 31.18914 | -96.31261 | 25858 ft | 447 kts | 154° |
| 2026-04-23 10:27 | 31.16165 | -96.29584 | 25241 ft | 441 kts | 154° |
| 2026-04-23 10:28 | 31.13487 | -96.27952 | 24643 ft | 434 kts | 154° |
| 2026-04-23 10:28 | 31.10832 | -96.26337 | 24041 ft | 428 kts | 153° |
| 2026-04-23 10:28 | 31.08201 | -96.24737 | 23446 ft | 422 kts | 153° |
| 2026-04-23 10:28 | 31.05641 | -96.23182 | 22870 ft | 417 kts | 153° |
| 2026-04-23 10:29 | 31.03066 | -96.21619 | 22278 ft | 413 kts | 153° |
| 2026-04-23 10:29 | 31.00562 | -96.20101 | 21706 ft | 409 kts | 153° |
| 2026-04-23 10:29 | 30.98053 | -96.18552 | 21136 ft | 406 kts | 152° |
| 2026-04-23 10:29 | 30.95585 | -96.16977 | 20564 ft | 402 kts | 152° |
| 2026-04-23 10:30 | 30.93147 | -96.15397 | 19996 ft | 399 kts | 152° |
| 2026-04-23 10:30 | 30.90741 | -96.13830 | 19436 ft | 395 kts | 152° |
| 2026-04-23 10:30 | 30.88355 | -96.12276 | 18871 ft | 392 kts | 152° |
| 2026-04-23 10:30 | 30.86008 | -96.10751 | 18309 ft | 388 kts | 152° |
| 2026-04-23 10:31 | 30.83654 | -96.09226 | 17746 ft | 384 kts | 152° |
| 2026-04-23 10:31 | 30.81330 | -96.07724 | 17196 ft | 381 kts | 152° |
| 2026-04-23 10:31 | 30.79011 | -96.06230 | 16642 ft | 378 kts | 152° |
| 2026-04-23 10:31 | 30.76726 | -96.04761 | 16099 ft | 375 kts | 152° |
| 2026-04-23 10:32 | 30.74473 | -96.03315 | 15556 ft | 371 kts | 152° |
| 2026-04-23 10:32 | 30.72203 | -96.01859 | 14983 ft | 369 kts | 152° |
| 2026-04-23 10:32 | 30.69975 | -96.00430 | 14446 ft | 366 kts | 152° |
| 2026-04-23 10:32 | 30.67758 | -95.99010 | 13918 ft | 362 kts | 152° |
| 2026-04-23 10:33 | 30.65570 | -95.97610 | 13394 ft | 359 kts | 152° |
| 2026-04-23 10:33 | 30.63405 | -95.96223 | 12853 ft | 356 kts | 152° |
| 2026-04-23 10:33 | 30.61228 | -95.94830 | 12316 ft | 353 kts | 152° |
| 2026-04-23 10:33 | 30.59086 | -95.93461 | 11791 ft | 350 kts | 152° |
| 2026-04-23 10:34 | 30.56953 | -95.92098 | 11269 ft | 347 kts | 152° |
| 2026-04-23 10:34 | 30.54852 | -95.90756 | 10742 ft | 344 kts | 152° |
| 2026-04-23 10:34 | 30.52764 | -95.89423 | 10390 ft | 336 kts | 152° |
| 2026-04-23 10:34 | 30.50775 | -95.88156 | 10234 ft | 321 kts | 153° |
| 2026-04-23 10:35 | 30.48771 | -95.87109 | 9982 ft | 310 kts | 164° |
| 2026-04-23 10:35 | 30.46694 | -95.86603 | 9691 ft | 300 kts | 175° |
| 2026-04-23 10:35 | 30.44634 | -95.86403 | 9289 ft | 297 kts | 179° |
| 2026-04-23 10:35 | 30.42599 | -95.86273 | 8922 ft | 293 kts | 178° |
| 2026-04-23 10:36 | 30.40562 | -95.86122 | 8559 ft | 289 kts | 177° |
| 2026-04-23 10:36 | 30.38562 | -95.85937 | 8202 ft | 285 kts | 176° |
| 2026-04-23 10:36 | 30.36617 | -95.85731 | 7855 ft | 282 kts | 175° |
| 2026-04-23 10:36 | 30.34672 | -95.85513 | 7510 ft | 278 kts | 175° |
| 2026-04-23 10:37 | 30.32763 | -95.85297 | 7165 ft | 275 kts | 175° |
| 2026-04-23 10:37 | 30.30859 | -95.85080 | 6821 ft | 272 kts | 175° |
| 2026-04-23 10:37 | 30.28980 | -95.84868 | 6480 ft | 268 kts | 175° |
| 2026-04-23 10:37 | 30.27153 | -95.84663 | 6248 ft | 260 kts | 174° |
| 2026-04-23 10:38 | 30.25382 | -95.84465 | 6172 ft | 247 kts | 174° |
| 2026-04-23 10:38 | 30.23721 | -95.84280 | 6101 ft | 235 kts | 174° |
| 2026-04-23 10:38 | 30.22115 | -95.84139 | 6010 ft | 225 kts | 179° |
| 2026-04-23 10:38 | 30.20559 | -95.84204 | 6020 ft | 228 kts | 184° |
| 2026-04-23 10:39 | 30.18946 | -95.84364 | 6010 ft | 230 kts | 185° |
| 2026-04-23 10:39 | 30.17366 | -95.84525 | 6011 ft | 231 kts | 184° |
| 2026-04-23 10:39 | 30.15754 | -95.84676 | 6008 ft | 231 kts | 184° |
| 2026-04-23 10:39 | 30.14150 | -95.84820 | 6012 ft | 230 kts | 184° |
| 2026-04-23 10:40 | 30.12550 | -95.84958 | 6009 ft | 231 kts | 184° |
| 2026-04-23 10:40 | 30.10930 | -95.85097 | 6010 ft | 230 kts | 184° |
| 2026-04-23 10:40 | 30.09342 | -95.85233 | 6014 ft | 230 kts | 184° |
| 2026-04-23 10:40 | 30.07711 | -95.85371 | 6008 ft | 230 kts | 184° |
| 2026-04-23 10:41 | 30.06113 | -95.85504 | 6014 ft | 230 kts | 184° |
| 2026-04-23 10:41 | 30.04515 | -95.85637 | 6012 ft | 230 kts | 184° |
| 2026-04-23 10:41 | 30.02913 | -95.85754 | 6011 ft | 229 kts | 180° |
| 2026-04-23 10:41 | 30.01345 | -95.85511 | 6010 ft | 231 kts | 157° |
| 2026-04-23 10:42 | 30.00070 | -95.84399 | 6017 ft | 231 kts | 126° |
| 2026-04-23 10:42 | 29.99383 | -95.82739 | 6021 ft | 233 kts | 105° |
| 2026-04-23 10:42 | 29.99174 | -95.80894 | 6014 ft | 233 kts | 92° |
| 2026-04-23 10:42 | 29.99196 | -95.79009 | 6011 ft | 234 kts | 89° |
| 2026-04-23 10:43 | 29.99245 | -95.77144 | 6020 ft | 234 kts | 89° |
| 2026-04-23 10:43 | 29.99276 | -95.75264 | 5945 ft | 236 kts | 90° |
| 2026-04-23 10:43 | 29.99288 | -95.73378 | 5666 ft | 235 kts | 90° |
| 2026-04-23 10:43 | 29.99294 | -95.71503 | 5415 ft | 232 kts | 91° |
| 2026-04-23 10:44 | 29.99300 | -95.69662 | 5168 ft | 229 kts | 91° |
| 2026-04-23 10:44 | 29.99305 | -95.67841 | 4998 ft | 226 kts | 91° |
| 2026-04-23 10:44 | 29.99311 | -95.66001 | 4673 ft | 230 kts | 91° |
| 2026-04-23 10:44 | 29.99317 | -95.64178 | 4414 ft | 227 kts | 91° |
| 2026-04-23 10:45 | 29.99329 | -95.62370 | 4161 ft | 224 kts | 91° |
| 2026-04-23 10:45 | 29.99352 | -95.60584 | 3994 ft | 219 kts | 90° |
| 2026-04-23 10:45 | 29.99400 | -95.58812 | 3747 ft | 220 kts | 89° |
| 2026-04-23 10:45 | 29.99511 | -95.57091 | 3536 ft | 215 kts | 85° |
| 2026-04-23 10:46 | 29.99786 | -95.55408 | 3360 ft | 209 kts | 75° |
| 2026-04-23 10:46 | 30.00317 | -95.53895 | 3196 ft | 202 kts | 69° |
| 2026-04-23 10:46 | 30.00630 | -95.52347 | 3022 ft | 195 kts | 89° |
| 2026-04-23 10:46 | 30.00658 | -95.50810 | 2949 ft | 195 kts | 92° |